sensor_id;sensor_type;location;lat;lon;timestamp;P1;durP1;ratioP1;P2;durP2;ratioP2
1799;SDS011;919;48.274;12.292;2023-07-24T00:01:35;7.80;;;4.83;;
1799;SDS011;919;48.274;12.292;2023-07-24T00:04:02;8.17;;;4.90;;
1799;SDS011;919;48.274;12.292;2023-07-24T00:06:29;6.57;;;5.20;;
1799;SDS011;919;48.274;12.292;2023-07-24T00:08:56;8.40;;;5.03;;
1799;SDS011;919;48.274;12.292;2023-07-24T00:11:24;8.37;;;4.40;;
1799;SDS011;919;48.274;12.292;2023-07-24T00:13:50;10.30;;;5.57;;
1799;SDS011;919;48.274;12.292;2023-07-24T00:16:17;8.47;;;5.30;;
1799;SDS011;919;48.274;12.292;2023-07-24T00:18:44;7.20;;;5.07;;
1799;SDS011;919;48.274;12.292;2023-07-24T00:21:10;8.97;;;5.37;;
1799;SDS011;919;48.274;12.292;2023-07-24T00:23:38;6.53;;;4.73;;
1799;SDS011;919;48.274;12.292;2023-07-24T00:26:05;6.90;;;4.53;;
1799;SDS011;919;48.274;12.292;2023-07-24T00:28:33;7.03;;;4.90;;
1799;SDS011;919;48.274;12.292;2023-07-24T00:31:00;6.63;;;5.00;;
1799;SDS011;919;48.274;12.292;2023-07-24T00:33:27;6.83;;;5.30;;
1799;SDS011;919;48.274;12.292;2023-07-24T00:35:55;8.83;;;6.10;;
1799;SDS011;919;48.274;12.292;2023-07-24T00:38:22;9.93;;;4.90;;
1799;SDS011;919;48.274;12.292;2023-07-24T00:40:49;7.93;;;5.07;;
1799;SDS011;919;48.274;12.292;2023-07-24T00:43:16;8.77;;;4.37;;
1799;SDS011;919;48.274;12.292;2023-07-24T00:45:44;9.33;;;6.17;;
1799;SDS011;919;48.274;12.292;2023-07-24T00:48:12;7.10;;;5.00;;
1799;SDS011;919;48.274;12.292;2023-07-24T00:50:39;7.43;;;5.00;;
1799;SDS011;919;48.274;12.292;2023-07-24T00:53:08;7.03;;;5.07;;
1799;SDS011;919;48.274;12.292;2023-07-24T00:55:35;9.07;;;5.20;;
1799;SDS011;919;48.274;12.292;2023-07-24T00:58:01;9.70;;;5.57;;
1799;SDS011;919;48.274;12.292;2023-07-24T01:00:29;6.70;;;4.70;;
1799;SDS011;919;48.274;12.292;2023-07-24T01:02:58;8.97;;;5.30;;
1799;SDS011;919;48.274;12.292;2023-07-24T01:05:26;7.23;;;4.90;;
1799;SDS011;919;48.274;12.292;2023-07-24T01:07:53;6.70;;;4.90;;
1799;SDS011;919;48.274;12.292;2023-07-24T01:10:20;7.43;;;4.90;;
1799;SDS011;919;48.274;12.292;2023-07-24T01:12:50;10.83;;;4.37;;
1799;SDS011;919;48.274;12.292;2023-07-24T01:15:22;10.00;;;5.47;;
1799;SDS011;919;48.274;12.292;2023-07-24T01:17:55;7.33;;;5.00;;
1799;SDS011;919;48.274;12.292;2023-07-24T01:20:25;7.90;;;4.87;;
1799;SDS011;919;48.274;12.292;2023-07-24T01:22:57;9.37;;;5.20;;
1799;SDS011;919;48.274;12.292;2023-07-24T01:25:43;7.33;;;5.00;;
1799;SDS011;919;48.274;12.292;2023-07-24T01:28:18;5.90;;;4.60;;
1799;SDS011;919;48.274;12.292;2023-07-24T01:30:45;8.30;;;4.63;;
1799;SDS011;919;48.274;12.292;2023-07-24T01:33:12;11.00;;;5.27;;
1799;SDS011;919;48.274;12.292;2023-07-24T01:35:39;10.07;;;5.27;;
1799;SDS011;919;48.274;12.292;2023-07-24T01:38:08;9.47;;;4.83;;
1799;SDS011;919;48.274;12.292;2023-07-24T01:40:35;8.53;;;4.63;;
1799;SDS011;919;48.274;12.292;2023-07-24T01:43:04;7.53;;;5.73;;
1799;SDS011;919;48.274;12.292;2023-07-24T01:45:31;7.33;;;4.83;;
1799;SDS011;919;48.274;12.292;2023-07-24T01:47:58;6.00;;;4.60;;
1799;SDS011;919;48.274;12.292;2023-07-24T01:50:25;7.77;;;5.53;;
1799;SDS011;919;48.274;12.292;2023-07-24T01:52:51;11.23;;;5.80;;
1799;SDS011;919;48.274;12.292;2023-07-24T01:55:18;8.60;;;5.50;;
1799;SDS011;919;48.274;12.292;2023-07-24T01:57:45;10.47;;;6.37;;
1799;SDS011;919;48.274;12.292;2023-07-24T02:00:13;6.67;;;4.83;;
1799;SDS011;919;48.274;12.292;2023-07-24T02:02:40;7.60;;;5.50;;
1799;SDS011;919;48.274;12.292;2023-07-24T02:05:07;11.90;;;6.30;;
1799;SDS011;919;48.274;12.292;2023-07-24T02:07:34;11.83;;;6.30;;
1799;SDS011;919;48.274;12.292;2023-07-24T02:10:01;9.07;;;5.50;;
1799;SDS011;919;48.274;12.292;2023-07-24T02:12:28;8.57;;;6.23;;
1799;SDS011;919;48.274;12.292;2023-07-24T02:14:54;7.83;;;5.93;;
1799;SDS011;919;48.274;12.292;2023-07-24T02:17:23;12.07;;;6.30;;
1799;SDS011;919;48.274;12.292;2023-07-24T02:19:50;9.10;;;6.50;;
1799;SDS011;919;48.274;12.292;2023-07-24T02:22:17;10.77;;;6.10;;
1799;SDS011;919;48.274;12.292;2023-07-24T02:24:44;13.20;;;6.70;;
1799;SDS011;919;48.274;12.292;2023-07-24T02:27:11;8.40;;;5.83;;
1799;SDS011;919;48.274;12.292;2023-07-24T02:29:39;9.00;;;6.70;;
1799;SDS011;919;48.274;12.292;2023-07-24T02:32:06;11.03;;;7.03;;
1799;SDS011;919;48.274;12.292;2023-07-24T02:34:35;9.47;;;7.60;;
1799;SDS011;919;48.274;12.292;2023-07-24T02:37:01;10.60;;;6.87;;
1799;SDS011;919;48.274;12.292;2023-07-24T02:39:28;10.50;;;6.93;;
1799;SDS011;919;48.274;12.292;2023-07-24T02:41:55;9.47;;;5.73;;
1799;SDS011;919;48.274;12.292;2023-07-24T02:44:22;9.63;;;5.63;;
1799;SDS011;919;48.274;12.292;2023-07-24T02:46:49;9.30;;;6.40;;
1799;SDS011;919;48.274;12.292;2023-07-24T02:49:15;10.00;;;5.30;;
1799;SDS011;919;48.274;12.292;2023-07-24T02:51:43;10.03;;;5.57;;
1799;SDS011;919;48.274;12.292;2023-07-24T02:54:10;9.90;;;7.00;;
1799;SDS011;919;48.274;12.292;2023-07-24T02:56:37;9.83;;;6.90;;
1799;SDS011;919;48.274;12.292;2023-07-24T02:59:05;8.67;;;6.50;;
1799;SDS011;919;48.274;12.292;2023-07-24T03:01:31;10.33;;;7.47;;
1799;SDS011;919;48.274;12.292;2023-07-24T03:03:58;11.00;;;6.70;;
1799;SDS011;919;48.274;12.292;2023-07-24T03:06:25;14.43;;;7.90;;
1799;SDS011;919;48.274;12.292;2023-07-24T03:08:53;11.50;;;6.90;;
1799;SDS011;919;48.274;12.292;2023-07-24T03:11:20;12.07;;;7.20;;
1799;SDS011;919;48.274;12.292;2023-07-24T03:13:46;9.10;;;6.13;;
1799;SDS011;919;48.274;12.292;2023-07-24T03:16:13;10.70;;;6.70;;
1799;SDS011;919;48.274;12.292;2023-07-24T03:18:42;12.70;;;6.87;;
1799;SDS011;919;48.274;12.292;2023-07-24T03:21:09;13.10;;;6.63;;
1799;SDS011;919;48.274;12.292;2023-07-24T03:23:35;13.53;;;8.30;;
1799;SDS011;919;48.274;12.292;2023-07-24T03:26:04;11.63;;;6.20;;
1799;SDS011;919;48.274;12.292;2023-07-24T03:28:30;10.43;;;7.27;;
1799;SDS011;919;48.274;12.292;2023-07-24T03:30:57;14.97;;;7.93;;
1799;SDS011;919;48.274;12.292;2023-07-24T03:33:24;16.27;;;7.20;;
1799;SDS011;919;48.274;12.292;2023-07-24T03:35:51;10.53;;;6.53;;
1799;SDS011;919;48.274;12.292;2023-07-24T03:38:17;14.87;;;8.67;;
1799;SDS011;919;48.274;12.292;2023-07-24T03:40:44;13.30;;;7.23;;
1799;SDS011;919;48.274;12.292;2023-07-24T03:43:13;13.10;;;8.57;;
1799;SDS011;919;48.274;12.292;2023-07-24T03:45:40;13.30;;;7.77;;
1799;SDS011;919;48.274;12.292;2023-07-24T03:48:07;11.63;;;7.40;;
1799;SDS011;919;48.274;12.292;2023-07-24T03:50:34;14.60;;;8.27;;
1799;SDS011;919;48.274;12.292;2023-07-24T03:53:00;13.70;;;8.70;;
1799;SDS011;919;48.274;12.292;2023-07-24T03:55:27;12.90;;;8.57;;
1799;SDS011;919;48.274;12.292;2023-07-24T03:57:54;21.87;;;8.77;;
1799;SDS011;919;48.274;12.292;2023-07-24T04:00:22;13.30;;;8.33;;
1799;SDS011;919;48.274;12.292;2023-07-24T04:02:49;17.13;;;8.20;;
1799;SDS011;919;48.274;12.292;2023-07-24T04:05:16;12.80;;;8.33;;
1799;SDS011;919;48.274;12.292;2023-07-24T04:07:42;14.87;;;8.07;;
1799;SDS011;919;48.274;12.292;2023-07-24T04:10:09;13.60;;;8.93;;
1799;SDS011;919;48.274;12.292;2023-07-24T04:12:36;17.03;;;8.37;;
1799;SDS011;919;48.274;12.292;2023-07-24T04:15:03;12.70;;;7.47;;
1799;SDS011;919;48.274;12.292;2023-07-24T04:17:31;17.70;;;9.00;;
1799;SDS011;919;48.274;12.292;2023-07-24T04:19:58;10.90;;;8.00;;
1799;SDS011;919;48.274;12.292;2023-07-24T04:22:25;10.80;;;8.00;;
1799;SDS011;919;48.274;12.292;2023-07-24T04:24:52;12.03;;;8.20;;
1799;SDS011;919;48.274;12.292;2023-07-24T04:27:19;11.53;;;8.57;;
1799;SDS011;919;48.274;12.292;2023-07-24T04:29:45;12.50;;;8.43;;
1799;SDS011;919;48.274;12.292;2023-07-24T04:32:12;10.00;;;7.30;;
1799;SDS011;919;48.274;12.292;2023-07-24T04:34:40;15.20;;;8.80;;
1799;SDS011;919;48.274;12.292;2023-07-24T04:37:07;12.33;;;8.90;;
1799;SDS011;919;48.274;12.292;2023-07-24T04:39:33;13.17;;;9.40;;
1799;SDS011;919;48.274;12.292;2023-07-24T04:42:01;9.43;;;8.03;;
1799;SDS011;919;48.274;12.292;2023-07-24T04:44:28;10.97;;;8.20;;
1799;SDS011;919;48.274;12.292;2023-07-24T04:46:56;9.70;;;7.20;;
1799;SDS011;919;48.274;12.292;2023-07-24T04:49:23;12.43;;;7.73;;
1799;SDS011;919;48.274;12.292;2023-07-24T04:51:51;11.87;;;8.37;;
1799;SDS011;919;48.274;12.292;2023-07-24T04:54:18;10.00;;;7.97;;
1799;SDS011;919;48.274;12.292;2023-07-24T04:56:45;10.83;;;8.20;;
1799;SDS011;919;48.274;12.292;2023-07-24T04:59:11;13.63;;;9.70;;
1799;SDS011;919;48.274;12.292;2023-07-24T05:01:38;15.43;;;9.50;;
1799;SDS011;919;48.274;12.292;2023-07-24T05:04:05;12.50;;;8.77;;
1799;SDS011;919;48.274;12.292;2023-07-24T05:06:32;10.20;;;8.10;;
1799;SDS011;919;48.274;12.292;2023-07-24T05:09:01;12.80;;;8.43;;
1799;SDS011;919;48.274;12.292;2023-07-24T05:11:28;13.03;;;7.20;;
1799;SDS011;919;48.274;12.292;2023-07-24T05:13:55;11.43;;;8.77;;
1799;SDS011;919;48.274;12.292;2023-07-24T05:16:22;10.20;;;8.30;;
1799;SDS011;919;48.274;12.292;2023-07-24T05:18:48;15.20;;;9.00;;
1799;SDS011;919;48.274;12.292;2023-07-24T05:21:15;11.27;;;8.53;;
1799;SDS011;919;48.274;12.292;2023-07-24T05:23:42;11.87;;;8.50;;
1799;SDS011;919;48.274;12.292;2023-07-24T05:26:10;11.90;;;8.73;;
1799;SDS011;919;48.274;12.292;2023-07-24T05:28:37;11.23;;;8.00;;
1799;SDS011;919;48.274;12.292;2023-07-24T05:31:04;12.27;;;8.00;;
1799;SDS011;919;48.274;12.292;2023-07-24T05:33:33;13.20;;;8.80;;
1799;SDS011;919;48.274;12.292;2023-07-24T05:35:59;12.60;;;8.70;;
1799;SDS011;919;48.274;12.292;2023-07-24T05:38:26;13.37;;;9.00;;
1799;SDS011;919;48.274;12.292;2023-07-24T05:40:54;10.93;;;8.50;;
1799;SDS011;919;48.274;12.292;2023-07-24T05:43:22;13.10;;;8.60;;
1799;SDS011;919;48.274;12.292;2023-07-24T05:45:49;11.47;;;8.37;;
1799;SDS011;919;48.274;12.292;2023-07-24T05:48:16;10.53;;;7.60;;
1799;SDS011;919;48.274;12.292;2023-07-24T05:50:43;9.50;;;7.20;;
1799;SDS011;919;48.274;12.292;2023-07-24T05:53:10;10.60;;;8.47;;
1799;SDS011;919;48.274;12.292;2023-07-24T05:55:37;12.23;;;8.37;;
1799;SDS011;919;48.274;12.292;2023-07-24T05:58:04;14.20;;;7.77;;
1799;SDS011;919;48.274;12.292;2023-07-24T06:00:32;12.83;;;8.30;;
1799;SDS011;919;48.274;12.292;2023-07-24T06:02:58;9.13;;;7.23;;
1799;SDS011;919;48.274;12.292;2023-07-24T06:05:25;12.73;;;8.40;;
1799;SDS011;919;48.274;12.292;2023-07-24T06:07:52;12.47;;;8.20;;
1799;SDS011;919;48.274;12.292;2023-07-24T06:10:19;13.23;;;9.03;;
1799;SDS011;919;48.274;12.292;2023-07-24T06:12:45;13.07;;;8.67;;
1799;SDS011;919;48.274;12.292;2023-07-24T06:15:12;9.87;;;7.90;;
1799;SDS011;919;48.274;12.292;2023-07-24T06:17:40;9.47;;;7.60;;
1799;SDS011;919;48.274;12.292;2023-07-24T06:20:07;10.57;;;8.10;;
1799;SDS011;919;48.274;12.292;2023-07-24T06:22:34;14.83;;;9.27;;
1799;SDS011;919;48.274;12.292;2023-07-24T06:25:01;12.00;;;8.87;;
1799;SDS011;919;48.274;12.292;2023-07-24T06:27:27;11.10;;;8.27;;
1799;SDS011;919;48.274;12.292;2023-07-24T06:29:54;11.77;;;7.93;;
1799;SDS011;919;48.274;12.292;2023-07-24T06:32:21;10.13;;;7.40;;
1799;SDS011;919;48.274;12.292;2023-07-24T06:34:49;11.83;;;8.30;;
1799;SDS011;919;48.274;12.292;2023-07-24T06:37:16;9.20;;;7.10;;
1799;SDS011;919;48.274;12.292;2023-07-24T06:39:42;9.73;;;7.33;;
1799;SDS011;919;48.274;12.292;2023-07-24T06:42:09;11.30;;;8.17;;
1799;SDS011;919;48.274;12.292;2023-07-24T06:44:36;11.63;;;7.80;;
1799;SDS011;919;48.274;12.292;2023-07-24T06:47:03;10.53;;;7.03;;
1799;SDS011;919;48.274;12.292;2023-07-24T06:49:30;9.97;;;7.63;;
1799;SDS011;919;48.274;12.292;2023-07-24T06:51:58;10.73;;;8.03;;
1799;SDS011;919;48.274;12.292;2023-07-24T06:54:24;11.37;;;8.10;;
1799;SDS011;919;48.274;12.292;2023-07-24T06:56:51;11.07;;;8.70;;
1799;SDS011;919;48.274;12.292;2023-07-24T06:59:18;13.20;;;8.57;;
1799;SDS011;919;48.274;12.292;2023-07-24T07:01:44;10.70;;;8.30;;
1799;SDS011;919;48.274;12.292;2023-07-24T07:04:11;12.33;;;8.07;;
1799;SDS011;919;48.274;12.292;2023-07-24T07:06:38;9.00;;;7.13;;
1799;SDS011;919;48.274;12.292;2023-07-24T07:09:06;10.83;;;8.03;;
1799;SDS011;919;48.274;12.292;2023-07-24T07:11:33;9.53;;;7.83;;
1799;SDS011;919;48.274;12.292;2023-07-24T07:13:59;10.83;;;7.50;;
1799;SDS011;919;48.274;12.292;2023-07-24T07:16:26;10.23;;;8.03;;
1799;SDS011;919;48.274;12.292;2023-07-24T07:18:53;11.73;;;8.53;;
1799;SDS011;919;48.274;12.292;2023-07-24T07:21:19;10.60;;;8.23;;
1799;SDS011;919;48.274;12.292;2023-07-24T07:23:46;12.23;;;7.70;;
1799;SDS011;919;48.274;12.292;2023-07-24T07:26:14;10.90;;;7.27;;
1799;SDS011;919;48.274;12.292;2023-07-24T07:28:41;8.87;;;7.80;;
1799;SDS011;919;48.274;12.292;2023-07-24T07:31:09;9.37;;;7.77;;
1799;SDS011;919;48.274;12.292;2023-07-24T07:33:36;10.83;;;7.87;;
1799;SDS011;919;48.274;12.292;2023-07-24T07:36:03;11.57;;;7.30;;
1799;SDS011;919;48.274;12.292;2023-07-24T07:38:31;9.33;;;7.47;;
1799;SDS011;919;48.274;12.292;2023-07-24T07:40:58;10.33;;;7.77;;
1799;SDS011;919;48.274;12.292;2023-07-24T07:43:26;9.07;;;7.47;;
1799;SDS011;919;48.274;12.292;2023-07-24T07:45:54;9.87;;;8.53;;
1799;SDS011;919;48.274;12.292;2023-07-24T07:48:21;11.03;;;8.27;;
1799;SDS011;919;48.274;12.292;2023-07-24T07:50:49;9.53;;;7.63;;
1799;SDS011;919;48.274;12.292;2023-07-24T07:53:17;12.07;;;7.70;;
1799;SDS011;919;48.274;12.292;2023-07-24T07:55:43;9.00;;;7.00;;
1799;SDS011;919;48.274;12.292;2023-07-24T07:58:10;10.03;;;7.97;;
1799;SDS011;919;48.274;12.292;2023-07-24T08:00:38;8.53;;;7.63;;
1799;SDS011;919;48.274;12.292;2023-07-24T08:03:06;8.60;;;7.30;;
1799;SDS011;919;48.274;12.292;2023-07-24T08:05:32;9.47;;;7.77;;
1799;SDS011;919;48.274;12.292;2023-07-24T08:07:59;8.23;;;7.17;;
1799;SDS011;919;48.274;12.292;2023-07-24T08:10:26;8.40;;;7.20;;
1799;SDS011;919;48.274;12.292;2023-07-24T08:12:53;9.83;;;7.57;;
1799;SDS011;919;48.274;12.292;2023-07-24T08:15:19;8.90;;;7.70;;
1799;SDS011;919;48.274;12.292;2023-07-24T08:17:47;9.07;;;7.47;;
1799;SDS011;919;48.274;12.292;2023-07-24T08:20:14;9.77;;;8.03;;
1799;SDS011;919;48.274;12.292;2023-07-24T08:22:41;9.00;;;7.70;;
1799;SDS011;919;48.274;12.292;2023-07-24T08:25:08;12.67;;;9.30;;
1799;SDS011;919;48.274;12.292;2023-07-24T08:27:35;10.43;;;7.50;;
1799;SDS011;919;48.274;12.292;2023-07-24T08:30:01;12.97;;;8.10;;
1799;SDS011;919;48.274;12.292;2023-07-24T08:32:29;8.50;;;6.33;;
1799;SDS011;919;48.274;12.292;2023-07-24T08:34:57;8.63;;;7.27;;
1799;SDS011;919;48.274;12.292;2023-07-24T08:37:23;9.23;;;7.23;;
1799;SDS011;919;48.274;12.292;2023-07-24T08:39:50;7.93;;;6.33;;
1799;SDS011;919;48.274;12.292;2023-07-24T08:42:17;11.60;;;6.03;;
1799;SDS011;919;48.274;12.292;2023-07-24T08:44:45;9.17;;;7.10;;
1799;SDS011;919;48.274;12.292;2023-07-24T08:47:12;8.50;;;7.10;;
1799;SDS011;919;48.274;12.292;2023-07-24T08:49:41;12.00;;;8.00;;
1799;SDS011;919;48.274;12.292;2023-07-24T08:52:09;10.50;;;6.13;;
1799;SDS011;919;48.274;12.292;2023-07-24T08:54:37;8.67;;;7.13;;
1799;SDS011;919;48.274;12.292;2023-07-24T08:57:04;7.10;;;5.80;;
1799;SDS011;919;48.274;12.292;2023-07-24T08:59:33;6.20;;;5.60;;
1799;SDS011;919;48.274;12.292;2023-07-24T09:02:00;6.90;;;5.00;;
1799;SDS011;919;48.274;12.292;2023-07-24T09:04:27;7.93;;;6.07;;
1799;SDS011;919;48.274;12.292;2023-07-24T09:06:54;8.63;;;7.37;;
1799;SDS011;919;48.274;12.292;2023-07-24T09:09:28;8.27;;;6.43;;
1799;SDS011;919;48.274;12.292;2023-07-24T09:11:55;8.53;;;7.00;;
1799;SDS011;919;48.274;12.292;2023-07-24T09:14:23;6.83;;;5.37;;
1799;SDS011;919;48.274;12.292;2023-07-24T09:17:01;6.87;;;5.93;;
1799;SDS011;919;48.274;12.292;2023-07-24T09:19:28;9.50;;;6.30;;
1799;SDS011;919;48.274;12.292;2023-07-24T09:21:55;9.93;;;6.90;;
1799;SDS011;919;48.274;12.292;2023-07-24T09:24:23;7.80;;;5.87;;
1799;SDS011;919;48.274;12.292;2023-07-24T09:26:50;8.20;;;5.90;;
1799;SDS011;919;48.274;12.292;2023-07-24T09:29:18;8.00;;;6.20;;
1799;SDS011;919;48.274;12.292;2023-07-24T09:31:45;6.63;;;6.03;;
1799;SDS011;919;48.274;12.292;2023-07-24T09:34:18;9.13;;;6.70;;
1799;SDS011;919;48.274;12.292;2023-07-24T09:36:45;7.77;;;6.57;;
1799;SDS011;919;48.274;12.292;2023-07-24T09:39:12;7.37;;;6.50;;
1799;SDS011;919;48.274;12.292;2023-07-24T09:41:40;9.13;;;5.83;;
1799;SDS011;919;48.274;12.292;2023-07-24T09:44:07;6.00;;;4.70;;
1799;SDS011;919;48.274;12.292;2023-07-24T09:46:33;5.73;;;4.33;;
1799;SDS011;919;48.274;12.292;2023-07-24T09:49:01;9.03;;;6.30;;
1799;SDS011;919;48.274;12.292;2023-07-24T09:51:29;6.90;;;6.13;;
1799;SDS011;919;48.274;12.292;2023-07-24T09:53:58;7.10;;;5.70;;
1799;SDS011;919;48.274;12.292;2023-07-24T09:56:31;7.40;;;6.23;;
1799;SDS011;919;48.274;12.292;2023-07-24T09:59:00;8.23;;;5.70;;
1799;SDS011;919;48.274;12.292;2023-07-24T10:01:29;7.37;;;5.63;;
1799;SDS011;919;48.274;12.292;2023-07-24T10:03:58;5.80;;;5.20;;
1799;SDS011;919;48.274;12.292;2023-07-24T10:06:26;6.03;;;5.43;;
1799;SDS011;919;48.274;12.292;2023-07-24T10:08:55;7.97;;;6.53;;
1799;SDS011;919;48.274;12.292;2023-07-24T10:11:23;8.03;;;6.87;;
1799;SDS011;919;48.274;12.292;2023-07-24T10:13:52;5.80;;;5.20;;
1799;SDS011;919;48.274;12.292;2023-07-24T10:16:21;6.23;;;4.93;;
1799;SDS011;919;48.274;12.292;2023-07-24T10:18:49;6.80;;;5.60;;
1799;SDS011;919;48.274;12.292;2023-07-24T10:21:16;5.77;;;4.93;;
1799;SDS011;919;48.274;12.292;2023-07-24T10:23:43;8.93;;;5.83;;
1799;SDS011;919;48.274;12.292;2023-07-24T10:26:12;6.50;;;5.60;;
1799;SDS011;919;48.274;12.292;2023-07-24T10:28:40;9.70;;;5.87;;
1799;SDS011;919;48.274;12.292;2023-07-24T10:31:18;6.10;;;5.33;;
1799;SDS011;919;48.274;12.292;2023-07-24T10:33:49;7.67;;;5.10;;
1799;SDS011;919;48.274;12.292;2023-07-24T10:36:17;6.90;;;5.60;;
1799;SDS011;919;48.274;12.292;2023-07-24T10:38:46;5.90;;;5.30;;
1799;SDS011;919;48.274;12.292;2023-07-24T10:41:18;5.20;;;4.63;;
1799;SDS011;919;48.274;12.292;2023-07-24T10:43:47;5.87;;;5.20;;
1799;SDS011;919;48.274;12.292;2023-07-24T10:46:15;5.33;;;4.57;;
1799;SDS011;919;48.274;12.292;2023-07-24T10:48:44;5.03;;;4.40;;
1799;SDS011;919;48.274;12.292;2023-07-24T10:51:16;5.30;;;4.80;;
1799;SDS011;919;48.274;12.292;2023-07-24T10:53:43;4.60;;;4.17;;
1799;SDS011;919;48.274;12.292;2023-07-24T10:56:12;5.00;;;4.50;;
1799;SDS011;919;48.274;12.292;2023-07-24T10:58:40;4.80;;;4.40;;
1799;SDS011;919;48.274;12.292;2023-07-24T11:01:08;4.90;;;4.00;;
1799;SDS011;919;48.274;12.292;2023-07-24T11:03:36;6.00;;;5.07;;
1799;SDS011;919;48.274;12.292;2023-07-24T11:06:04;4.83;;;4.33;;
1799;SDS011;919;48.274;12.292;2023-07-24T11:08:39;6.93;;;5.57;;
1799;SDS011;919;48.274;12.292;2023-07-24T11:11:08;5.57;;;4.43;;
1799;SDS011;919;48.274;12.292;2023-07-24T11:13:37;6.27;;;5.30;;
1799;SDS011;919;48.274;12.292;2023-07-24T11:16:05;8.27;;;5.63;;
1799;SDS011;919;48.274;12.292;2023-07-24T11:18:43;8.40;;;5.03;;
1799;SDS011;919;48.274;12.292;2023-07-24T11:21:12;7.00;;;5.63;;
1799;SDS011;919;48.274;12.292;2023-07-24T11:23:45;5.80;;;4.97;;
1799;SDS011;919;48.274;12.292;2023-07-24T11:26:14;5.63;;;5.00;;
1799;SDS011;919;48.274;12.292;2023-07-24T11:28:45;5.77;;;4.80;;
1799;SDS011;919;48.274;12.292;2023-07-24T11:31:13;5.83;;;5.23;;
1799;SDS011;919;48.274;12.292;2023-07-24T11:33:40;6.90;;;5.30;;
1799;SDS011;919;48.274;12.292;2023-07-24T11:36:08;6.30;;;5.37;;
1799;SDS011;919;48.274;12.292;2023-07-24T11:38:37;8.10;;;6.17;;
1799;SDS011;919;48.274;12.292;2023-07-24T11:41:07;7.43;;;5.90;;
1799;SDS011;919;48.274;12.292;2023-07-24T11:43:36;6.57;;;5.93;;
1799;SDS011;919;48.274;12.292;2023-07-24T11:46:21;6.20;;;5.60;;
1799;SDS011;919;48.274;12.292;2023-07-24T11:48:49;6.53;;;5.73;;
1799;SDS011;919;48.274;12.292;2023-07-24T11:51:19;7.13;;;6.43;;
1799;SDS011;919;48.274;12.292;2023-07-24T11:53:46;7.90;;;6.70;;
1799;SDS011;919;48.274;12.292;2023-07-24T11:56:15;7.77;;;5.87;;
1799;SDS011;919;48.274;12.292;2023-07-24T11:58:43;8.60;;;5.60;;
1799;SDS011;919;48.274;12.292;2023-07-24T12:01:12;7.20;;;6.47;;
1799;SDS011;919;48.274;12.292;2023-07-24T12:03:39;7.60;;;6.33;;
1799;SDS011;919;48.274;12.292;2023-07-24T12:06:13;7.33;;;6.60;;
1799;SDS011;919;48.274;12.292;2023-07-24T12:08:42;7.40;;;5.90;;
1799;SDS011;919;48.274;12.292;2023-07-24T12:11:16;11.40;;;6.10;;
1799;SDS011;919;48.274;12.292;2023-07-24T12:13:44;7.10;;;6.40;;
1799;SDS011;919;48.274;12.292;2023-07-24T12:16:11;6.90;;;5.20;;
1799;SDS011;919;48.274;12.292;2023-07-24T12:18:38;6.70;;;5.83;;
1799;SDS011;919;48.274;12.292;2023-07-24T12:21:05;6.83;;;5.73;;
1799;SDS011;919;48.274;12.292;2023-07-24T12:23:32;6.13;;;5.30;;
1799;SDS011;919;48.274;12.292;2023-07-24T12:25:59;7.37;;;5.43;;
1799;SDS011;919;48.274;12.292;2023-07-24T12:28:27;7.33;;;5.97;;
1799;SDS011;919;48.274;12.292;2023-07-24T12:30:54;6.03;;;5.43;;
1799;SDS011;919;48.274;12.292;2023-07-24T12:33:21;8.63;;;6.70;;
1799;SDS011;919;48.274;12.292;2023-07-24T12:35:48;6.67;;;5.77;;
1799;SDS011;919;48.274;12.292;2023-07-24T12:38:15;6.80;;;5.70;;
1799;SDS011;919;48.274;12.292;2023-07-24T12:40:42;5.83;;;5.23;;
1799;SDS011;919;48.274;12.292;2023-07-24T12:43:09;7.70;;;6.23;;
1799;SDS011;919;48.274;12.292;2023-07-24T12:45:37;6.17;;;5.40;;
1799;SDS011;919;48.274;12.292;2023-07-24T12:48:04;6.57;;;5.77;;
1799;SDS011;919;48.274;12.292;2023-07-24T12:50:31;7.20;;;5.47;;
1799;SDS011;919;48.274;12.292;2023-07-24T12:52:59;6.73;;;5.57;;
1799;SDS011;919;48.274;12.292;2023-07-24T12:55:26;5.67;;;5.07;;
1799;SDS011;919;48.274;12.292;2023-07-24T12:57:54;5.83;;;5.23;;
1799;SDS011;919;48.274;12.292;2023-07-24T13:00:21;8.00;;;5.13;;
1799;SDS011;919;48.274;12.292;2023-07-24T13:02:50;6.30;;;5.60;;
1799;SDS011;919;48.274;12.292;2023-07-24T13:05:16;6.20;;;4.80;;
1799;SDS011;919;48.274;12.292;2023-07-24T13:07:43;8.40;;;5.40;;
1799;SDS011;919;48.274;12.292;2023-07-24T13:10:11;6.50;;;5.17;;
1799;SDS011;919;48.274;12.292;2023-07-24T13:12:38;6.23;;;4.80;;
1799;SDS011;919;48.274;12.292;2023-07-24T13:15:05;7.73;;;5.47;;
1799;SDS011;919;48.274;12.292;2023-07-24T13:17:32;6.57;;;5.87;;
1799;SDS011;919;48.274;12.292;2023-07-24T13:20:01;5.83;;;4.90;;
1799;SDS011;919;48.274;12.292;2023-07-24T13:22:32;4.70;;;3.80;;
1799;SDS011;919;48.274;12.292;2023-07-24T13:24:59;5.90;;;5.30;;
1799;SDS011;919;48.274;12.292;2023-07-24T13:27:26;6.97;;;4.90;;
1799;SDS011;919;48.274;12.292;2023-07-24T13:29:55;7.30;;;5.83;;
1799;SDS011;919;48.274;12.292;2023-07-24T13:32:22;4.97;;;4.57;;
1799;SDS011;919;48.274;12.292;2023-07-24T13:34:50;6.10;;;4.93;;
1799;SDS011;919;48.274;12.292;2023-07-24T13:37:18;6.53;;;4.97;;
1799;SDS011;919;48.274;12.292;2023-07-24T13:39:45;5.23;;;4.73;;
1799;SDS011;919;48.274;12.292;2023-07-24T13:42:12;8.60;;;5.00;;
1799;SDS011;919;48.274;12.292;2023-07-24T13:44:38;5.70;;;5.00;;
1799;SDS011;919;48.274;12.292;2023-07-24T13:47:05;5.80;;;5.00;;
1799;SDS011;919;48.274;12.292;2023-07-24T13:49:32;5.30;;;4.60;;
1799;SDS011;919;48.274;12.292;2023-07-24T13:51:59;7.57;;;5.30;;
1799;SDS011;919;48.274;12.292;2023-07-24T13:54:27;6.70;;;5.33;;
1799;SDS011;919;48.274;12.292;2023-07-24T13:56:54;7.00;;;5.30;;
1799;SDS011;919;48.274;12.292;2023-07-24T13:59:20;6.93;;;5.47;;
1799;SDS011;919;48.274;12.292;2023-07-24T14:01:47;6.37;;;5.00;;
1799;SDS011;919;48.274;12.292;2023-07-24T14:04:14;7.50;;;5.30;;
1799;SDS011;919;48.274;12.292;2023-07-24T14:06:41;6.10;;;4.90;;
1799;SDS011;919;48.274;12.292;2023-07-24T14:09:07;6.23;;;5.13;;
1799;SDS011;919;48.274;12.292;2023-07-24T14:11:35;6.10;;;4.93;;
1799;SDS011;919;48.274;12.292;2023-07-24T14:14:02;6.50;;;5.03;;
1799;SDS011;919;48.274;12.292;2023-07-24T14:16:30;6.87;;;5.00;;
1799;SDS011;919;48.274;12.292;2023-07-24T14:18:57;5.97;;;5.37;;
1799;SDS011;919;48.274;12.292;2023-07-24T14:21:24;4.73;;;4.30;;
1799;SDS011;919;48.274;12.292;2023-07-24T14:23:50;6.13;;;4.40;;
1799;SDS011;919;48.274;12.292;2023-07-24T14:26:17;5.90;;;5.27;;
1799;SDS011;919;48.274;12.292;2023-07-24T14:28:45;5.37;;;4.60;;
1799;SDS011;919;48.274;12.292;2023-07-24T14:31:12;7.97;;;5.53;;
1799;SDS011;919;48.274;12.292;2023-07-24T14:33:39;5.47;;;4.70;;
1799;SDS011;919;48.274;12.292;2023-07-24T14:36:06;5.90;;;4.57;;
1799;SDS011;919;48.274;12.292;2023-07-24T14:38:33;4.83;;;4.43;;
1799;SDS011;919;48.274;12.292;2023-07-24T14:41:00;5.30;;;4.80;;
1799;SDS011;919;48.274;12.292;2023-07-24T14:43:27;5.50;;;4.40;;
1799;SDS011;919;48.274;12.292;2023-07-24T14:45:55;4.20;;;3.60;;
1799;SDS011;919;48.274;12.292;2023-07-24T14:48:22;5.53;;;4.50;;
1799;SDS011;919;48.274;12.292;2023-07-24T14:50:48;5.83;;;4.10;;
1799;SDS011;919;48.274;12.292;2023-07-24T14:53:15;5.97;;;5.30;;
1799;SDS011;919;48.274;12.292;2023-07-24T14:55:42;5.00;;;4.50;;
1799;SDS011;919;48.274;12.292;2023-07-24T14:58:09;5.77;;;4.70;;
1799;SDS011;919;48.274;12.292;2023-07-24T15:00:35;7.17;;;4.87;;
1799;SDS011;919;48.274;12.292;2023-07-24T15:03:03;7.43;;;4.53;;
1799;SDS011;919;48.274;12.292;2023-07-24T15:05:30;5.50;;;5.00;;
1799;SDS011;919;48.274;12.292;2023-07-24T15:07:57;7.03;;;5.60;;
1799;SDS011;919;48.274;12.292;2023-07-24T15:10:24;5.47;;;4.90;;
1799;SDS011;919;48.274;12.292;2023-07-24T15:12:50;5.10;;;4.60;;